KAJG

Mount Carmel Municipal Airport

Mount Carmel, Illinois, USA
METAR KAJG 201055Z AUTO 32013G19KT 10SM OVC033 M07/M11 A3017 RMK AO2 T10731109
Observed Flight Rules
Jan-20 @ 10:55 UTC (21 minutes ago) Visual Flight Rules
Wind Visibility Clouds
320° at 13 knots
 Gusting to 19 knots
10 miles
  • Overcast at 3,300' AGL
Temperatures Readings
Current -7°C / 19°F
Dewpoint -11°C / 12°F
Humidity 73%
Altimeter 30.17" Hg
Pressure 1021.72 hPa
Elevation 131
METAR KAJG 201055Z AUTO 32013G19KT 10SM OVC033 M07/M11 A3017 RMK AO2 T10731109
Observed Flight Rules
Jan-20 @ 10:55 UTC
(21 minutes ago)
VFR
Wind Visibility
320° at 13 knots
 Gusting to 19 knots
10 miles
Clouds
  • Overcast at 3,300' AGL
Temperature Dewpoint
-7°C / 19°F -11°C / 12°F
Humidity Altimeter Pressure
73% 30.17" Hg 1021.72 hPa